sensor_id;sensor_type;location;lat;lon;timestamp;P1;durP1;ratioP1;P2;durP2;ratioP2
15812;SDS011;8007;51.404;6.304;2023-07-13T00:00:59;3.87;;;1.40;;
15812;SDS011;8007;51.404;6.304;2023-07-13T00:11:44;4.97;;;1.07;;
15812;SDS011;8007;51.404;6.304;2023-07-13T00:16:35;4.97;;;1.43;;
15812;SDS011;8007;51.404;6.304;2023-07-13T00:18:40;3.77;;;1.10;;
15812;SDS011;8007;51.404;6.304;2023-07-13T00:20:46;2.97;;;0.93;;
15812;SDS011;8007;51.404;6.304;2023-07-13T00:22:49;2.53;;;0.97;;
15812;SDS011;8007;51.404;6.304;2023-07-13T00:24:55;4.30;;;1.40;;
15812;SDS011;8007;51.404;6.304;2023-07-13T00:26:58;5.20;;;1.47;;
15812;SDS011;8007;51.404;6.304;2023-07-13T00:29:01;2.80;;;1.10;;
15812;SDS011;8007;51.404;6.304;2023-07-13T00:31:16;4.57;;;1.30;;
15812;SDS011;8007;51.404;6.304;2023-07-13T00:33:19;2.80;;;1.30;;
15812;SDS011;8007;51.404;6.304;2023-07-13T00:35:25;2.20;;;1.10;;
15812;SDS011;8007;51.404;6.304;2023-07-13T00:37:30;3.20;;;1.00;;
15812;SDS011;8007;51.404;6.304;2023-07-13T00:39:35;2.47;;;1.00;;
15812;SDS011;8007;51.404;6.304;2023-07-13T00:41:40;5.20;;;1.53;;
15812;SDS011;8007;51.404;6.304;2023-07-13T00:43:44;2.60;;;1.10;;
15812;SDS011;8007;51.404;6.304;2023-07-13T00:51:21;3.60;;;1.20;;
15812;SDS011;8007;51.404;6.304;2023-07-13T00:53:28;3.67;;;1.23;;
15812;SDS011;8007;51.404;6.304;2023-07-13T00:55:33;2.13;;;1.20;;
15812;SDS011;8007;51.404;6.304;2023-07-13T00:57:38;2.77;;;1.20;;
15812;SDS011;8007;51.404;6.304;2023-07-13T00:59:42;1.90;;;1.10;;
15812;SDS011;8007;51.404;6.304;2023-07-13T01:01:47;6.00;;;1.77;;
15812;SDS011;8007;51.404;6.304;2023-07-13T01:03:52;4.03;;;1.30;;
15812;SDS011;8007;51.404;6.304;2023-07-13T01:05:58;2.17;;;1.23;;
15812;SDS011;8007;51.404;6.304;2023-07-13T01:08:04;2.57;;;1.30;;
15812;SDS011;8007;51.404;6.304;2023-07-13T01:10:10;2.87;;;1.23;;
15812;SDS011;8007;51.404;6.304;2023-07-13T01:12:14;2.40;;;1.67;;
15812;SDS011;8007;51.404;6.304;2023-07-13T01:14:19;5.63;;;1.40;;
15812;SDS011;8007;51.404;6.304;2023-07-13T01:16:29;3.93;;;1.53;;
15812;SDS011;8007;51.404;6.304;2023-07-13T01:18:34;4.30;;;1.67;;
15812;SDS011;8007;51.404;6.304;2023-07-13T01:20:40;4.13;;;1.50;;
15812;SDS011;8007;51.404;6.304;2023-07-13T01:22:45;5.33;;;1.97;;
15812;SDS011;8007;51.404;6.304;2023-07-13T01:24:56;4.13;;;1.40;;
15812;SDS011;8007;51.404;6.304;2023-07-13T01:27:03;2.17;;;1.30;;
15812;SDS011;8007;51.404;6.304;2023-07-13T01:29:07;4.67;;;1.47;;
15812;SDS011;8007;51.404;6.304;2023-07-13T01:31:10;4.37;;;1.43;;
15812;SDS011;8007;51.404;6.304;2023-07-13T01:33:27;3.40;;;1.23;;
15812;SDS011;8007;51.404;6.304;2023-07-13T01:35:30;4.30;;;1.20;;
15812;SDS011;8007;51.404;6.304;2023-07-13T01:37:32;2.07;;;1.10;;
15812;SDS011;8007;51.404;6.304;2023-07-13T01:39:42;2.67;;;1.70;;
15812;SDS011;8007;51.404;6.304;2023-07-13T01:44:03;3.60;;;1.40;;
15812;SDS011;8007;51.404;6.304;2023-07-13T01:46:06;2.93;;;1.30;;
15812;SDS011;8007;51.404;6.304;2023-07-13T01:48:09;5.83;;;1.70;;
15812;SDS011;8007;51.404;6.304;2023-07-13T01:50:43;3.87;;;1.27;;
15812;SDS011;8007;51.404;6.304;2023-07-13T01:52:49;2.97;;;1.40;;
15812;SDS011;8007;51.404;6.304;2023-07-13T01:54:54;3.10;;;1.40;;
15812;SDS011;8007;51.404;6.304;2023-07-13T02:00:18;4.90;;;1.53;;
15812;SDS011;8007;51.404;6.304;2023-07-13T02:02:22;7.80;;;1.60;;
15812;SDS011;8007;51.404;6.304;2023-07-13T02:04:28;4.07;;;1.40;;
15812;SDS011;8007;51.404;6.304;2023-07-13T02:06:40;5.90;;;1.63;;
15812;SDS011;8007;51.404;6.304;2023-07-13T02:08:44;5.57;;;1.43;;
15812;SDS011;8007;51.404;6.304;2023-07-13T02:10:48;4.63;;;1.50;;
15812;SDS011;8007;51.404;6.304;2023-07-13T02:12:52;6.20;;;1.40;;
15812;SDS011;8007;51.404;6.304;2023-07-13T02:14:55;4.27;;;1.13;;
15812;SDS011;8007;51.404;6.304;2023-07-13T02:17:12;4.47;;;1.70;;
15812;SDS011;8007;51.404;6.304;2023-07-13T02:19:16;5.73;;;1.50;;
15812;SDS011;8007;51.404;6.304;2023-07-13T02:21:38;7.50;;;1.67;;
15812;SDS011;8007;51.404;6.304;2023-07-13T02:23:41;4.57;;;1.60;;
15812;SDS011;8007;51.404;6.304;2023-07-13T02:26:06;3.60;;;1.37;;
15812;SDS011;8007;51.404;6.304;2023-07-13T02:28:10;3.97;;;1.10;;
15812;SDS011;8007;51.404;6.304;2023-07-13T02:30:13;9.83;;;1.40;;
15812;SDS011;8007;51.404;6.304;2023-07-13T02:32:17;3.63;;;1.70;;
15812;SDS011;8007;51.404;6.304;2023-07-13T02:34:26;5.23;;;1.50;;
15812;SDS011;8007;51.404;6.304;2023-07-13T02:36:30;2.80;;;1.20;;
15812;SDS011;8007;51.404;6.304;2023-07-13T02:39:04;2.97;;;1.27;;
15812;SDS011;8007;51.404;6.304;2023-07-13T02:41:10;2.33;;;1.30;;
15812;SDS011;8007;51.404;6.304;2023-07-13T02:46:25;4.20;;;1.47;;
15812;SDS011;8007;51.404;6.304;2023-07-13T02:48:30;3.30;;;1.50;;
15812;SDS011;8007;51.404;6.304;2023-07-13T02:51:15;3.27;;;1.47;;
15812;SDS011;8007;51.404;6.304;2023-07-13T02:53:05;4.90;;;1.40;;
15812;SDS011;8007;51.404;6.304;2023-07-13T02:57:39;4.53;;;1.60;;
15812;SDS011;8007;51.404;6.304;2023-07-13T02:59:45;5.90;;;2.03;;
15812;SDS011;8007;51.404;6.304;2023-07-13T03:02:06;5.50;;;1.87;;
15812;SDS011;8007;51.404;6.304;2023-07-13T03:04:10;6.17;;;1.37;;
15812;SDS011;8007;51.404;6.304;2023-07-13T03:06:13;5.23;;;1.97;;
15812;SDS011;8007;51.404;6.304;2023-07-13T03:08:19;5.30;;;1.60;;
15812;SDS011;8007;51.404;6.304;2023-07-13T03:10:31;4.77;;;1.70;;
15812;SDS011;8007;51.404;6.304;2023-07-13T03:12:34;4.87;;;1.73;;
15812;SDS011;8007;51.404;6.304;2023-07-13T03:14:40;3.57;;;1.40;;
15812;SDS011;8007;51.404;6.304;2023-07-13T03:16:46;3.70;;;1.37;;
15812;SDS011;8007;51.404;6.304;2023-07-13T03:18:52;3.87;;;1.30;;
15812;SDS011;8007;51.404;6.304;2023-07-13T03:20:55;6.00;;;1.80;;
15812;SDS011;8007;51.404;6.304;2023-07-13T03:22:59;5.77;;;1.70;;
15812;SDS011;8007;51.404;6.304;2023-07-13T03:25:06;3.23;;;1.43;;
15812;SDS011;8007;51.404;6.304;2023-07-13T03:27:09;3.73;;;1.47;;
15812;SDS011;8007;51.404;6.304;2023-07-13T03:29:13;5.10;;;1.87;;
15812;SDS011;8007;51.404;6.304;2023-07-13T03:31:18;6.40;;;2.23;;
15812;SDS011;8007;51.404;6.304;2023-07-13T03:33:21;4.40;;;1.47;;
15812;SDS011;8007;51.404;6.304;2023-07-13T03:35:25;4.27;;;1.50;;
15812;SDS011;8007;51.404;6.304;2023-07-13T03:37:31;2.77;;;1.50;;
15812;SDS011;8007;51.404;6.304;2023-07-13T03:39:45;5.13;;;1.57;;
15812;SDS011;8007;51.404;6.304;2023-07-13T03:41:49;5.67;;;1.90;;
15812;SDS011;8007;51.404;6.304;2023-07-13T03:43:52;2.63;;;1.70;;
15812;SDS011;8007;51.404;6.304;2023-07-13T03:45:55;4.97;;;1.60;;
15812;SDS011;8007;51.404;6.304;2023-07-13T03:50:17;9.53;;;2.87;;
15812;SDS011;8007;51.404;6.304;2023-07-13T03:52:20;2.80;;;1.47;;
15812;SDS011;8007;51.404;6.304;2023-07-13T03:54:23;4.20;;;1.40;;
15812;SDS011;8007;51.404;6.304;2023-07-13T03:56:29;6.47;;;1.53;;
15812;SDS011;8007;51.404;6.304;2023-07-13T03:58:36;6.60;;;2.10;;
15812;SDS011;8007;51.404;6.304;2023-07-13T04:00:40;5.43;;;1.70;;
15812;SDS011;8007;51.404;6.304;2023-07-13T04:02:44;4.13;;;1.63;;
15812;SDS011;8007;51.404;6.304;2023-07-13T04:05:03;6.50;;;1.80;;
15812;SDS011;8007;51.404;6.304;2023-07-13T04:07:07;5.07;;;1.60;;
15812;SDS011;8007;51.404;6.304;2023-07-13T04:09:11;6.80;;;1.80;;
15812;SDS011;8007;51.404;6.304;2023-07-13T04:11:14;4.47;;;1.87;;
15812;SDS011;8007;51.404;6.304;2023-07-13T04:13:23;4.80;;;2.00;;
15812;SDS011;8007;51.404;6.304;2023-07-13T04:15:28;7.27;;;1.70;;
15812;SDS011;8007;51.404;6.304;2023-07-13T04:17:32;3.93;;;1.70;;
15812;SDS011;8007;51.404;6.304;2023-07-13T04:19:36;6.67;;;2.00;;
15812;SDS011;8007;51.404;6.304;2023-07-13T04:21:40;7.03;;;1.97;;
15812;SDS011;8007;51.404;6.304;2023-07-13T04:23:42;5.40;;;1.80;;
15812;SDS011;8007;51.404;6.304;2023-07-13T04:25:46;10.13;;;1.90;;
15812;SDS011;8007;51.404;6.304;2023-07-13T04:27:53;9.27;;;1.93;;
15812;SDS011;8007;51.404;6.304;2023-07-13T04:29:59;6.83;;;2.00;;
15812;SDS011;8007;51.404;6.304;2023-07-13T04:32:04;6.67;;;2.60;;
15812;SDS011;8007;51.404;6.304;2023-07-13T04:34:13;7.53;;;1.83;;
15812;SDS011;8007;51.404;6.304;2023-07-13T04:36:19;4.67;;;2.13;;
15812;SDS011;8007;51.404;6.304;2023-07-13T04:38:24;9.07;;;2.53;;
15812;SDS011;8007;51.404;6.304;2023-07-13T04:40:29;4.70;;;2.00;;
15812;SDS011;8007;51.404;6.304;2023-07-13T04:42:31;3.83;;;1.73;;
15812;SDS011;8007;51.404;6.304;2023-07-13T04:44:35;6.33;;;1.90;;
15812;SDS011;8007;51.404;6.304;2023-07-13T04:46:38;6.53;;;2.20;;
15812;SDS011;8007;51.404;6.304;2023-07-13T04:48:41;3.17;;;2.00;;
15812;SDS011;8007;51.404;6.304;2023-07-13T04:50:43;5.77;;;2.30;;
15812;SDS011;8007;51.404;6.304;2023-07-13T04:52:46;6.77;;;2.40;;
15812;SDS011;8007;51.404;6.304;2023-07-13T04:57:51;5.60;;;2.30;;
15812;SDS011;8007;51.404;6.304;2023-07-13T04:59:54;6.40;;;2.47;;
15812;SDS011;8007;51.404;6.304;2023-07-13T05:02:01;7.67;;;2.10;;
15812;SDS011;8007;51.404;6.304;2023-07-13T05:04:07;6.37;;;2.07;;
15812;SDS011;8007;51.404;6.304;2023-07-13T05:06:10;7.47;;;2.33;;
15812;SDS011;8007;51.404;6.304;2023-07-13T05:08:14;5.47;;;2.40;;
15812;SDS011;8007;51.404;6.304;2023-07-13T05:10:19;8.50;;;2.33;;
15812;SDS011;8007;51.404;6.304;2023-07-13T05:12:25;8.27;;;2.53;;
15812;SDS011;8007;51.404;6.304;2023-07-13T05:14:32;4.23;;;2.17;;
15812;SDS011;8007;51.404;6.304;2023-07-13T05:16:38;9.03;;;2.30;;
15812;SDS011;8007;51.404;6.304;2023-07-13T05:18:41;6.10;;;2.37;;
15812;SDS011;8007;51.404;6.304;2023-07-13T05:20:56;7.03;;;2.33;;
15812;SDS011;8007;51.404;6.304;2023-07-13T05:22:59;6.37;;;2.20;;
15812;SDS011;8007;51.404;6.304;2023-07-13T05:25:04;5.83;;;2.10;;
15812;SDS011;8007;51.404;6.304;2023-07-13T05:27:09;6.83;;;2.17;;
15812;SDS011;8007;51.404;6.304;2023-07-13T05:29:13;5.67;;;2.00;;
15812;SDS011;8007;51.404;6.304;2023-07-13T05:33:36;4.47;;;2.40;;
15812;SDS011;8007;51.404;6.304;2023-07-13T05:35:39;6.03;;;2.60;;
15812;SDS011;8007;51.404;6.304;2023-07-13T05:37:41;8.97;;;2.53;;
15812;SDS011;8007;51.404;6.304;2023-07-13T05:39:43;8.67;;;2.80;;
15812;SDS011;8007;51.404;6.304;2023-07-13T05:41:45;8.90;;;3.00;;
15812;SDS011;8007;51.404;6.304;2023-07-13T05:43:48;5.73;;;2.60;;
15812;SDS011;8007;51.404;6.304;2023-07-13T05:45:53;8.17;;;2.47;;
15812;SDS011;8007;51.404;6.304;2023-07-13T05:47:58;7.97;;;2.43;;
15812;SDS011;8007;51.404;6.304;2023-07-13T05:50:02;10.20;;;2.70;;
15812;SDS011;8007;51.404;6.304;2023-07-13T05:52:05;13.33;;;3.70;;
15812;SDS011;8007;51.404;6.304;2023-07-13T05:54:08;9.30;;;2.90;;
15812;SDS011;8007;51.404;6.304;2023-07-13T05:56:10;7.17;;;3.00;;
15812;SDS011;8007;51.404;6.304;2023-07-13T05:58:12;7.67;;;3.20;;
15812;SDS011;8007;51.404;6.304;2023-07-13T06:00:15;11.40;;;3.33;;
15812;SDS011;8007;51.404;6.304;2023-07-13T06:02:18;9.13;;;3.13;;
15812;SDS011;8007;51.404;6.304;2023-07-13T06:04:21;8.87;;;2.87;;
15812;SDS011;8007;51.404;6.304;2023-07-13T06:06:24;7.77;;;3.10;;
15812;SDS011;8007;51.404;6.304;2023-07-13T06:08:27;7.20;;;2.87;;
15812;SDS011;8007;51.404;6.304;2023-07-13T06:10:32;12.20;;;3.28;;
15812;SDS011;8007;51.404;6.304;2023-07-13T06:12:34;9.73;;;2.90;;
15812;SDS011;8007;51.404;6.304;2023-07-13T06:14:36;11.37;;;3.17;;
15812;SDS011;8007;51.404;6.304;2023-07-13T06:16:39;9.10;;;3.40;;
15812;SDS011;8007;51.404;6.304;2023-07-13T06:18:42;13.60;;;3.70;;
15812;SDS011;8007;51.404;6.304;2023-07-13T06:20:46;8.77;;;3.23;;
15812;SDS011;8007;51.404;6.304;2023-07-13T06:22:48;7.27;;;3.60;;
15812;SDS011;8007;51.404;6.304;2023-07-13T06:24:51;13.30;;;4.37;;
15812;SDS011;8007;51.404;6.304;2023-07-13T06:26:53;13.03;;;3.27;;
15812;SDS011;8007;51.404;6.304;2023-07-13T06:28:55;8.87;;;3.50;;
15812;SDS011;8007;51.404;6.304;2023-07-13T06:30:58;9.50;;;4.00;;
15812;SDS011;8007;51.404;6.304;2023-07-13T06:33:00;8.10;;;3.13;;
15812;SDS011;8007;51.404;6.304;2023-07-13T06:35:03;8.40;;;3.40;;
15812;SDS011;8007;51.404;6.304;2023-07-13T06:37:08;10.57;;;3.97;;
15812;SDS011;8007;51.404;6.304;2023-07-13T06:39:11;9.70;;;3.40;;
15812;SDS011;8007;51.404;6.304;2023-07-13T06:41:13;9.60;;;3.67;;
15812;SDS011;8007;51.404;6.304;2023-07-13T06:43:16;11.60;;;3.30;;
15812;SDS011;8007;51.404;6.304;2023-07-13T06:45:20;9.93;;;4.00;;
15812;SDS011;8007;51.404;6.304;2023-07-13T06:47:22;8.17;;;3.10;;
15812;SDS011;8007;51.404;6.304;2023-07-13T06:49:25;9.10;;;3.30;;
15812;SDS011;8007;51.404;6.304;2023-07-13T06:51:27;6.10;;;3.20;;
15812;SDS011;8007;51.404;6.304;2023-07-13T06:53:31;7.80;;;3.23;;
15812;SDS011;8007;51.404;6.304;2023-07-13T06:55:33;10.50;;;4.23;;
15812;SDS011;8007;51.404;6.304;2023-07-13T06:57:35;9.47;;;3.90;;
15812;SDS011;8007;51.404;6.304;2023-07-13T06:59:37;8.87;;;3.37;;
15812;SDS011;8007;51.404;6.304;2023-07-13T07:01:40;8.43;;;3.30;;
15812;SDS011;8007;51.404;6.304;2023-07-13T07:03:42;9.77;;;3.57;;
15812;SDS011;8007;51.404;6.304;2023-07-13T07:05:44;11.10;;;3.80;;
15812;SDS011;8007;51.404;6.304;2023-07-13T07:07:47;7.10;;;3.57;;
15812;SDS011;8007;51.404;6.304;2023-07-13T07:09:50;9.20;;;3.43;;
15812;SDS011;8007;51.404;6.304;2023-07-13T07:11:53;8.77;;;2.83;;
15812;SDS011;8007;51.404;6.304;2023-07-13T07:13:55;11.10;;;3.40;;
15812;SDS011;8007;51.404;6.304;2023-07-13T07:15:57;8.27;;;3.30;;
15812;SDS011;8007;51.404;6.304;2023-07-13T07:18:00;11.77;;;3.53;;
15812;SDS011;8007;51.404;6.304;2023-07-13T07:20:02;11.67;;;3.87;;
15812;SDS011;8007;51.404;6.304;2023-07-13T07:22:05;6.90;;;3.17;;
15812;SDS011;8007;51.404;6.304;2023-07-13T07:24:07;7.63;;;3.17;;
15812;SDS011;8007;51.404;6.304;2023-07-13T07:26:11;11.60;;;3.50;;
15812;SDS011;8007;51.404;6.304;2023-07-13T07:28:14;8.20;;;3.20;;
15812;SDS011;8007;51.404;6.304;2023-07-13T07:30:18;8.00;;;3.40;;
15812;SDS011;8007;51.404;6.304;2023-07-13T07:32:20;7.30;;;3.27;;
15812;SDS011;8007;51.404;6.304;2023-07-13T07:34:22;7.23;;;3.00;;
15812;SDS011;8007;51.404;6.304;2023-07-13T07:36:25;10.50;;;3.07;;
15812;SDS011;8007;51.404;6.304;2023-07-13T07:38:27;7.80;;;2.67;;
15812;SDS011;8007;51.404;6.304;2023-07-13T07:40:30;6.23;;;3.07;;
15812;SDS011;8007;51.404;6.304;2023-07-13T07:42:34;12.63;;;3.50;;
15812;SDS011;8007;51.404;6.304;2023-07-13T07:44:36;11.73;;;3.47;;
15812;SDS011;8007;51.404;6.304;2023-07-13T07:46:39;7.73;;;2.80;;
15812;SDS011;8007;51.404;6.304;2023-07-13T07:48:41;15.83;;;3.23;;
15812;SDS011;8007;51.404;6.304;2023-07-13T07:50:44;6.40;;;2.60;;
15812;SDS011;8007;51.404;6.304;2023-07-13T07:52:46;6.07;;;2.70;;
15812;SDS011;8007;51.404;6.304;2023-07-13T07:54:49;7.20;;;3.20;;
15812;SDS011;8007;51.404;6.304;2023-07-13T07:56:53;9.20;;;2.60;;
15812;SDS011;8007;51.404;6.304;2023-07-13T07:58:56;6.53;;;2.70;;
15812;SDS011;8007;51.404;6.304;2023-07-13T08:01:02;7.57;;;3.47;;
15812;SDS011;8007;51.404;6.304;2023-07-13T08:03:06;5.17;;;3.50;;
15812;SDS011;8007;51.404;6.304;2023-07-13T08:05:08;10.57;;;3.60;;
15812;SDS011;8007;51.404;6.304;2023-07-13T08:07:10;6.50;;;2.80;;
15812;SDS011;8007;51.404;6.304;2023-07-13T08:09:13;6.37;;;2.97;;
15812;SDS011;8007;51.404;6.304;2023-07-13T08:11:15;8.43;;;3.63;;
15812;SDS011;8007;51.404;6.304;2023-07-13T08:13:18;9.77;;;3.70;;
15812;SDS011;8007;51.404;6.304;2023-07-13T08:15:21;8.53;;;3.30;;
15812;SDS011;8007;51.404;6.304;2023-07-13T08:17:24;5.77;;;3.10;;
15812;SDS011;8007;51.404;6.304;2023-07-13T08:19:26;4.80;;;2.60;;
15812;SDS011;8007;51.404;6.304;2023-07-13T08:21:28;5.87;;;3.30;;
15812;SDS011;8007;51.404;6.304;2023-07-13T08:23:31;8.97;;;3.37;;
15812;SDS011;8007;51.404;6.304;2023-07-13T08:25:33;5.63;;;2.90;;
15812;SDS011;8007;51.404;6.304;2023-07-13T08:27:36;4.90;;;2.90;;
15812;SDS011;8007;51.404;6.304;2023-07-13T08:29:38;8.53;;;3.17;;
15812;SDS011;8007;51.404;6.304;2023-07-13T08:31:42;5.03;;;3.07;;
15812;SDS011;8007;51.404;6.304;2023-07-13T08:33:45;4.73;;;2.70;;
15812;SDS011;8007;51.404;6.304;2023-07-13T08:35:47;10.20;;;3.20;;
15812;SDS011;8007;51.404;6.304;2023-07-13T08:37:49;8.57;;;3.20;;
15812;SDS011;8007;51.404;6.304;2023-07-13T08:39:51;10.57;;;3.10;;
15812;SDS011;8007;51.404;6.304;2023-07-13T08:41:55;6.80;;;2.73;;
15812;SDS011;8007;51.404;6.304;2023-07-13T08:44:01;6.03;;;3.10;;
15812;SDS011;8007;51.404;6.304;2023-07-13T08:46:05;7.53;;;3.00;;
15812;SDS011;8007;51.404;6.304;2023-07-13T08:48:11;6.80;;;2.70;;
15812;SDS011;8007;51.404;6.304;2023-07-13T08:50:19;5.53;;;2.60;;
15812;SDS011;8007;51.404;6.304;2023-07-13T08:52:28;7.07;;;2.90;;
15812;SDS011;8007;51.404;6.304;2023-07-13T08:54:34;6.03;;;2.80;;
15812;SDS011;8007;51.404;6.304;2023-07-13T08:56:38;5.10;;;2.70;;
15812;SDS011;8007;51.404;6.304;2023-07-13T08:58:40;7.70;;;3.20;;
15812;SDS011;8007;51.404;6.304;2023-07-13T09:00:44;6.07;;;3.03;;
15812;SDS011;8007;51.404;6.304;2023-07-13T09:02:56;9.63;;;3.47;;
15812;SDS011;8007;51.404;6.304;2023-07-13T09:05:01;5.90;;;2.75;;
15812;SDS011;8007;51.404;6.304;2023-07-13T09:07:05;5.80;;;3.17;;
15812;SDS011;8007;51.404;6.304;2023-07-13T09:09:17;8.85;;;3.38;;
15812;SDS011;8007;51.404;6.304;2023-07-13T09:11:28;7.57;;;2.90;;
15812;SDS011;8007;51.404;6.304;2023-07-13T09:13:37;7.60;;;3.03;;
15812;SDS011;8007;51.404;6.304;2023-07-13T09:15:44;9.20;;;3.35;;
15812;SDS011;8007;51.404;6.304;2023-07-13T09:17:49;9.32;;;3.30;;
15812;SDS011;8007;51.404;6.304;2023-07-13T09:19:55;4.90;;;2.83;;
15812;SDS011;8007;51.404;6.304;2023-07-13T09:22:05;10.88;;;3.53;;
15812;SDS011;8007;51.404;6.304;2023-07-13T09:24:26;6.07;;;2.55;;
15812;SDS011;8007;51.404;6.304;2023-07-13T09:26:30;10.50;;;3.13;;
15812;SDS011;8007;51.404;6.304;2023-07-13T09:28:35;6.68;;;2.85;;
15812;SDS011;8007;51.404;6.304;2023-07-13T09:30:43;5.43;;;2.63;;
15812;SDS011;8007;51.404;6.304;2023-07-13T09:32:50;4.10;;;2.38;;
15812;SDS011;8007;51.404;6.304;2023-07-13T09:34:53;7.82;;;2.63;;
15812;SDS011;8007;51.404;6.304;2023-07-13T09:36:56;6.20;;;2.80;;
15812;SDS011;8007;51.404;6.304;2023-07-13T09:39:02;5.18;;;2.60;;
15812;SDS011;8007;51.404;6.304;2023-07-13T09:41:10;4.85;;;2.50;;
15812;SDS011;8007;51.404;6.304;2023-07-13T09:43:19;5.70;;;2.90;;
15812;SDS011;8007;51.404;6.304;2023-07-13T09:45:26;5.32;;;2.45;;
15812;SDS011;8007;51.404;6.304;2023-07-13T09:47:30;5.63;;;2.42;;
15812;SDS011;8007;51.404;6.304;2023-07-13T09:49:34;5.43;;;2.58;;
15812;SDS011;8007;51.404;6.304;2023-07-13T09:51:36;5.57;;;2.63;;
15812;SDS011;8007;51.404;6.304;2023-07-13T09:53:39;4.25;;;2.55;;
15812;SDS011;8007;51.404;6.304;2023-07-13T09:55:46;7.63;;;2.80;;
15812;SDS011;8007;51.404;6.304;2023-07-13T09:57:48;8.85;;;2.85;;
15812;SDS011;8007;51.404;6.304;2023-07-13T09:59:53;6.65;;;2.47;;
15812;SDS011;8007;51.404;6.304;2023-07-13T10:01:59;5.68;;;3.00;;
15812;SDS011;8007;51.404;6.304;2023-07-13T10:04:01;6.20;;;2.78;;
15812;SDS011;8007;51.404;6.304;2023-07-13T10:06:10;6.05;;;2.40;;
15812;SDS011;8007;51.404;6.304;2023-07-13T10:08:17;5.68;;;2.42;;
15812;SDS011;8007;51.404;6.304;2023-07-13T10:10:22;6.72;;;2.63;;
15812;SDS011;8007;51.404;6.304;2023-07-13T10:12:27;5.25;;;2.72;;
15812;SDS011;8007;51.404;6.304;2023-07-13T10:14:30;7.88;;;2.50;;
15812;SDS011;8007;51.404;6.304;2023-07-13T10:16:33;4.72;;;2.10;;
15812;SDS011;8007;51.404;6.304;2023-07-13T10:18:39;8.18;;;2.50;;
15812;SDS011;8007;51.404;6.304;2023-07-13T10:20:43;5.18;;;2.40;;
15812;SDS011;8007;51.404;6.304;2023-07-13T10:22:49;6.25;;;2.30;;
15812;SDS011;8007;51.404;6.304;2023-07-13T10:24:55;6.72;;;2.22;;
15812;SDS011;8007;51.404;6.304;2023-07-13T10:29:18;9.43;;;3.08;;
15812;SDS011;8007;51.404;6.304;2023-07-13T10:31:22;6.65;;;2.58;;
15812;SDS011;8007;51.404;6.304;2023-07-13T10:33:25;3.60;;;2.10;;
15812;SDS011;8007;51.404;6.304;2023-07-13T10:35:28;5.15;;;2.65;;
15812;SDS011;8007;51.404;6.304;2023-07-13T10:37:36;5.57;;;2.30;;
15812;SDS011;8007;51.404;6.304;2023-07-13T10:39:42;4.47;;;2.80;;
15812;SDS011;8007;51.404;6.304;2023-07-13T10:41:46;6.28;;;2.45;;
15812;SDS011;8007;51.404;6.304;2023-07-13T10:43:51;6.28;;;2.40;;
15812;SDS011;8007;51.404;6.304;2023-07-13T10:45:55;4.20;;;2.13;;
15812;SDS011;8007;51.404;6.304;2023-07-13T10:47:57;4.10;;;2.05;;
15812;SDS011;8007;51.404;6.304;2023-07-13T10:49:59;7.78;;;2.15;;
15812;SDS011;8007;51.404;6.304;2023-07-13T10:52:02;6.05;;;2.30;;
15812;SDS011;8007;51.404;6.304;2023-07-13T10:54:14;4.20;;;2.08;;
15812;SDS011;8007;51.404;6.304;2023-07-13T10:56:23;3.63;;;2.10;;
15812;SDS011;8007;51.404;6.304;2023-07-13T10:58:29;3.47;;;2.13;;
15812;SDS011;8007;51.404;6.304;2023-07-13T11:00:34;5.55;;;2.50;;
15812;SDS011;8007;51.404;6.304;2023-07-13T11:02:56;6.18;;;2.13;;
15812;SDS011;8007;51.404;6.304;2023-07-13T11:05:13;5.25;;;2.28;;
15812;SDS011;8007;51.404;6.304;2023-07-13T11:07:22;5.28;;;2.08;;
15812;SDS011;8007;51.404;6.304;2023-07-13T11:09:36;5.55;;;2.15;;
15812;SDS011;8007;51.404;6.304;2023-07-13T11:11:40;3.90;;;2.00;;
15812;SDS011;8007;51.404;6.304;2023-07-13T11:13:55;5.50;;;2.05;;
15812;SDS011;8007;51.404;6.304;2023-07-13T11:16:01;3.33;;;1.73;;
15812;SDS011;8007;51.404;6.304;2023-07-13T11:18:21;3.95;;;1.75;;
15812;SDS011;8007;51.404;6.304;2023-07-13T11:20:32;3.58;;;1.92;;
15812;SDS011;8007;51.404;6.304;2023-07-13T11:22:42;2.70;;;1.80;;
15812;SDS011;8007;51.404;6.304;2023-07-13T11:24:48;2.58;;;1.60;;
15812;SDS011;8007;51.404;6.304;2023-07-13T11:26:52;3.00;;;1.70;;
15812;SDS011;8007;51.404;6.304;2023-07-13T11:28:54;12.77;;;2.65;;
15812;SDS011;8007;51.404;6.304;2023-07-13T11:31:01;6.40;;;2.10;;
15812;SDS011;8007;51.404;6.304;2023-07-13T11:33:22;3.70;;;1.83;;
15812;SDS011;8007;51.404;6.304;2023-07-13T11:35:27;3.25;;;1.80;;
15812;SDS011;8007;51.404;6.304;2023-07-13T11:37:30;4.35;;;2.03;;
15812;SDS011;8007;51.404;6.304;2023-07-13T11:39:34;3.17;;;1.73;;
15812;SDS011;8007;51.404;6.304;2023-07-13T11:41:43;4.47;;;2.10;;
15812;SDS011;8007;51.404;6.304;2023-07-13T11:43:49;3.38;;;2.00;;
15812;SDS011;8007;51.404;6.304;2023-07-13T11:45:53;5.43;;;1.85;;
15812;SDS011;8007;51.404;6.304;2023-07-13T11:50:37;3.35;;;1.77;;
15812;SDS011;8007;51.404;6.304;2023-07-13T11:52:44;3.13;;;1.80;;
15812;SDS011;8007;51.404;6.304;2023-07-13T11:54:49;4.22;;;2.13;;
15812;SDS011;8007;51.404;6.304;2023-07-13T11:56:56;3.42;;;2.13;;
15812;SDS011;8007;51.404;6.304;2023-07-13T11:59:03;5.20;;;1.98;;
15812;SDS011;8007;51.404;6.304;2023-07-13T12:01:13;3.90;;;1.63;;
15812;SDS011;8007;51.404;6.304;2023-07-13T12:03:20;3.55;;;1.92;;
15812;SDS011;8007;51.404;6.304;2023-07-13T12:05:27;3.95;;;1.83;;
15812;SDS011;8007;51.404;6.304;2023-07-13T12:07:32;4.22;;;1.90;;
15812;SDS011;8007;51.404;6.304;2023-07-13T12:09:35;4.05;;;2.17;;
15812;SDS011;8007;51.404;6.304;2023-07-13T12:11:40;3.80;;;1.90;;
15812;SDS011;8007;51.404;6.304;2023-07-13T12:13:43;8.82;;;2.25;;
15812;SDS011;8007;51.404;6.304;2023-07-13T12:15:46;6.93;;;1.85;;
15812;SDS011;8007;51.404;6.304;2023-07-13T12:17:49;4.75;;;2.03;;
15812;SDS011;8007;51.404;6.304;2023-07-13T12:19:56;4.72;;;1.88;;
15812;SDS011;8007;51.404;6.304;2023-07-13T12:22:04;3.13;;;1.88;;
15812;SDS011;8007;51.404;6.304;2023-07-13T12:24:13;5.80;;;1.67;;
15812;SDS011;8007;51.404;6.304;2023-07-13T12:26:18;3.70;;;1.88;;
15812;SDS011;8007;51.404;6.304;2023-07-13T12:28:22;4.05;;;1.80;;
15812;SDS011;8007;51.404;6.304;2023-07-13T12:30:32;2.42;;;2.03;;
15812;SDS011;8007;51.404;6.304;2023-07-13T12:32:36;4.38;;;2.03;;
15812;SDS011;8007;51.404;6.304;2023-07-13T12:34:51;3.75;;;1.67;;
15812;SDS011;8007;51.404;6.304;2023-07-13T12:36:59;3.67;;;1.80;;
15812;SDS011;8007;51.404;6.304;2023-07-13T12:39:14;3.17;;;1.80;;
15812;SDS011;8007;51.404;6.304;2023-07-13T12:41:19;7.25;;;1.98;;
15812;SDS011;8007;51.404;6.304;2023-07-13T12:43:23;5.20;;;2.22;;
15812;SDS011;8007;51.404;6.304;2023-07-13T12:45:27;3.10;;;1.75;;
15812;SDS011;8007;51.404;6.304;2023-07-13T12:47:48;3.40;;;1.77;;
15812;SDS011;8007;51.404;6.304;2023-07-13T12:49:55;3.25;;;2.00;;
15812;SDS011;8007;51.404;6.304;2023-07-13T12:51:59;3.05;;;2.03;;
15812;SDS011;8007;51.404;6.304;2023-07-13T12:54:13;4.10;;;1.90;;
15812;SDS011;8007;51.404;6.304;2023-07-13T12:56:19;4.15;;;1.73;;
15812;SDS011;8007;51.404;6.304;2023-07-13T12:58:25;4.68;;;1.90;;
15812;SDS011;8007;51.404;6.304;2023-07-13T13:00:30;4.00;;;1.95;;
15812;SDS011;8007;51.404;6.304;2023-07-13T13:02:35;2.97;;;1.77;;
15812;SDS011;8007;51.404;6.304;2023-07-13T13:04:45;3.47;;;1.63;;
15812;SDS011;8007;51.404;6.304;2023-07-13T13:06:48;2.53;;;1.65;;
15812;SDS011;8007;51.404;6.304;2023-07-13T13:09:05;7.53;;;1.80;;
15812;SDS011;8007;51.404;6.304;2023-07-13T13:11:19;3.70;;;1.60;;
15812;SDS011;8007;51.404;6.304;2023-07-13T13:13:24;2.50;;;1.85;;
15812;SDS011;8007;51.404;6.304;2023-07-13T13:15:27;3.05;;;1.50;;
15812;SDS011;8007;51.404;6.304;2023-07-13T13:17:31;4.38;;;1.83;;
15812;SDS011;8007;51.404;6.304;2023-07-13T13:19:34;8.07;;;2.53;;
15812;SDS011;8007;51.404;6.304;2023-07-13T13:21:38;4.43;;;1.75;;
15812;SDS011;8007;51.404;6.304;2023-07-13T13:23:41;3.38;;;1.92;;
15812;SDS011;8007;51.404;6.304;2023-07-13T13:25:48;5.82;;;1.85;;
15812;SDS011;8007;51.404;6.304;2023-07-13T13:27:52;4.40;;;1.75;;